sensor_id;sensor_type;location;lat;lon;timestamp;P1;durP1;ratioP1;P2;durP2;ratioP2
13973;SDS011;7060;43.770;4.008;2022-09-13T00:01:21;6.07;;;2.78;;
13973;SDS011;7060;43.770;4.008;2022-09-13T00:03:50;4.68;;;2.60;;
13973;SDS011;7060;43.770;4.008;2022-09-13T00:06:18;3.58;;;2.55;;
13973;SDS011;7060;43.770;4.008;2022-09-13T00:08:47;4.05;;;2.55;;
13973;SDS011;7060;43.770;4.008;2022-09-13T00:11:16;8.27;;;3.22;;
13973;SDS011;7060;43.770;4.008;2022-09-13T00:13:47;4.97;;;2.80;;
13973;SDS011;7060;43.770;4.008;2022-09-13T00:16:18;2.70;;;2.20;;
13973;SDS011;7060;43.770;4.008;2022-09-13T00:18:47;3.35;;;2.65;;
13973;SDS011;7060;43.770;4.008;2022-09-13T00:21:16;4.63;;;2.65;;
13973;SDS011;7060;43.770;4.008;2022-09-13T00:23:46;4.65;;;2.50;;
13973;SDS011;7060;43.770;4.008;2022-09-13T00:26:17;4.88;;;2.67;;
13973;SDS011;7060;43.770;4.008;2022-09-13T00:28:49;7.63;;;3.08;;
13973;SDS011;7060;43.770;4.008;2022-09-13T00:31:19;5.75;;;3.20;;
13973;SDS011;7060;43.770;4.008;2022-09-13T00:33:50;3.85;;;3.55;;
13973;SDS011;7060;43.770;4.008;2022-09-13T00:36:18;4.40;;;3.15;;
13973;SDS011;7060;43.770;4.008;2022-09-13T00:38:46;3.28;;;2.97;;
13973;SDS011;7060;43.770;4.008;2022-09-13T00:41:16;4.30;;;2.90;;
13973;SDS011;7060;43.770;4.008;2022-09-13T00:43:46;4.60;;;2.90;;
13973;SDS011;7060;43.770;4.008;2022-09-13T00:46:23;4.80;;;2.47;;
13973;SDS011;7060;43.770;4.008;2022-09-13T00:49:02;5.70;;;3.10;;
13973;SDS011;7060;43.770;4.008;2022-09-13T00:51:38;4.50;;;2.70;;
13973;SDS011;7060;43.770;4.008;2022-09-13T00:54:10;9.35;;;2.85;;
13973;SDS011;7060;43.770;4.008;2022-09-13T00:56:42;5.65;;;3.22;;
13973;SDS011;7060;43.770;4.008;2022-09-13T00:59:16;4.00;;;3.42;;
13973;SDS011;7060;43.770;4.008;2022-09-13T01:01:48;4.57;;;3.33;;
13973;SDS011;7060;43.770;4.008;2022-09-13T01:04:21;3.70;;;3.08;;
13973;SDS011;7060;43.770;4.008;2022-09-13T01:06:53;5.68;;;2.90;;
13973;SDS011;7060;43.770;4.008;2022-09-13T01:09:26;7.78;;;3.42;;
13973;SDS011;7060;43.770;4.008;2022-09-13T01:11:58;5.43;;;3.20;;
13973;SDS011;7060;43.770;4.008;2022-09-13T01:14:32;6.40;;;3.40;;
13973;SDS011;7060;43.770;4.008;2022-09-13T01:17:03;3.92;;;3.25;;
13973;SDS011;7060;43.770;4.008;2022-09-13T01:19:31;10.48;;;4.75;;
13973;SDS011;7060;43.770;4.008;2022-09-13T01:22:05;5.78;;;3.10;;
13973;SDS011;7060;43.770;4.008;2022-09-13T01:24:58;5.60;;;3.05;;
13973;SDS011;7060;43.770;4.008;2022-09-13T01:27:49;4.90;;;3.50;;
13973;SDS011;7060;43.770;4.008;2022-09-13T01:30:33;5.75;;;3.03;;
13973;SDS011;7060;43.770;4.008;2022-09-13T01:33:15;7.38;;;3.60;;
13973;SDS011;7060;43.770;4.008;2022-09-13T01:38:58;4.78;;;3.30;;
13973;SDS011;7060;43.770;4.008;2022-09-13T01:41:35;4.38;;;3.67;;
13973;SDS011;7060;43.770;4.008;2022-09-13T01:44:28;7.93;;;4.13;;
13973;SDS011;7060;43.770;4.008;2022-09-13T01:47:09;5.32;;;3.30;;
13973;SDS011;7060;43.770;4.008;2022-09-13T01:49:46;5.68;;;3.90;;
13973;SDS011;7060;43.770;4.008;2022-09-13T01:52:26;5.68;;;3.60;;
13973;SDS011;7060;43.770;4.008;2022-09-13T01:55:04;4.97;;;3.03;;
13973;SDS011;7060;43.770;4.008;2022-09-13T01:57:40;8.07;;;3.92;;
13973;SDS011;7060;43.770;4.008;2022-09-13T02:00:15;4.65;;;3.08;;
13973;SDS011;7060;43.770;4.008;2022-09-13T02:02:46;4.18;;;3.78;;
13973;SDS011;7060;43.770;4.008;2022-09-13T02:05:20;6.38;;;4.50;;
13973;SDS011;7060;43.770;4.008;2022-09-13T02:07:55;6.03;;;3.90;;
13973;SDS011;7060;43.770;4.008;2022-09-13T02:10:27;6.90;;;3.53;;
13973;SDS011;7060;43.770;4.008;2022-09-13T02:13:00;5.05;;;4.18;;
13973;SDS011;7060;43.770;4.008;2022-09-13T02:15:35;6.22;;;4.80;;
13973;SDS011;7060;43.770;4.008;2022-09-13T02:18:11;6.78;;;4.18;;
13973;SDS011;7060;43.770;4.008;2022-09-13T02:20:46;9.57;;;4.10;;
13973;SDS011;7060;43.770;4.008;2022-09-13T02:23:18;6.88;;;4.15;;
13973;SDS011;7060;43.770;4.008;2022-09-13T02:25:51;5.22;;;3.85;;
13973;SDS011;7060;43.770;4.008;2022-09-13T02:28:22;6.18;;;3.00;;
13973;SDS011;7060;43.770;4.008;2022-09-13T02:30:59;4.80;;;3.60;;
13973;SDS011;7060;43.770;4.008;2022-09-13T02:33:32;9.82;;;5.05;;
13973;SDS011;7060;43.770;4.008;2022-09-13T02:36:06;5.40;;;4.57;;
13973;SDS011;7060;43.770;4.008;2022-09-13T02:38:40;9.27;;;5.43;;
13973;SDS011;7060;43.770;4.008;2022-09-13T02:41:16;7.95;;;5.45;;
13973;SDS011;7060;43.770;4.008;2022-09-13T02:43:54;6.50;;;4.55;;
13973;SDS011;7060;43.770;4.008;2022-09-13T02:46:33;8.65;;;4.40;;
13973;SDS011;7060;43.770;4.008;2022-09-13T02:49:13;7.03;;;4.70;;
13973;SDS011;7060;43.770;4.008;2022-09-13T02:51:51;7.82;;;4.35;;
13973;SDS011;7060;43.770;4.008;2022-09-13T02:54:24;5.07;;;3.83;;
13973;SDS011;7060;43.770;4.008;2022-09-13T02:57:00;4.72;;;3.78;;
13973;SDS011;7060;43.770;4.008;2022-09-13T02:59:34;7.15;;;4.30;;
13973;SDS011;7060;43.770;4.008;2022-09-13T03:02:03;7.22;;;4.50;;
13973;SDS011;7060;43.770;4.008;2022-09-13T03:04:35;7.15;;;4.15;;
13973;SDS011;7060;43.770;4.008;2022-09-13T03:07:05;7.53;;;4.20;;
13973;SDS011;7060;43.770;4.008;2022-09-13T03:09:37;5.78;;;4.97;;
13973;SDS011;7060;43.770;4.008;2022-09-13T03:12:15;6.75;;;4.40;;
13973;SDS011;7060;43.770;4.008;2022-09-13T03:14:59;5.75;;;3.78;;
13973;SDS011;7060;43.770;4.008;2022-09-13T03:17:40;8.18;;;4.03;;
13973;SDS011;7060;43.770;4.008;2022-09-13T03:20:23;4.68;;;3.65;;
13973;SDS011;7060;43.770;4.008;2022-09-13T03:23:15;5.78;;;3.67;;
13973;SDS011;7060;43.770;4.008;2022-09-13T03:26:07;4.18;;;3.78;;
13973;SDS011;7060;43.770;4.008;2022-09-13T03:28:50;6.93;;;3.95;;
13973;SDS011;7060;43.770;4.008;2022-09-13T03:31:29;5.82;;;4.10;;
13973;SDS011;7060;43.770;4.008;2022-09-13T03:34:03;8.00;;;4.20;;
13973;SDS011;7060;43.770;4.008;2022-09-13T03:36:39;7.32;;;3.50;;
13973;SDS011;7060;43.770;4.008;2022-09-13T03:39:15;6.93;;;3.97;;
13973;SDS011;7060;43.770;4.008;2022-09-13T03:41:52;4.93;;;4.13;;
13973;SDS011;7060;43.770;4.008;2022-09-13T03:44:23;5.57;;;4.20;;
13973;SDS011;7060;43.770;4.008;2022-09-13T03:46:55;8.02;;;5.00;;
13973;SDS011;7060;43.770;4.008;2022-09-13T03:49:27;6.57;;;4.07;;
13973;SDS011;7060;43.770;4.008;2022-09-13T03:51:57;6.38;;;4.35;;
13973;SDS011;7060;43.770;4.008;2022-09-13T03:54:27;6.00;;;4.32;;
13973;SDS011;7060;43.770;4.008;2022-09-13T03:57:11;7.03;;;4.38;;
13973;SDS011;7060;43.770;4.008;2022-09-13T03:59:42;5.07;;;4.57;;
13973;SDS011;7060;43.770;4.008;2022-09-13T04:02:13;5.68;;;3.83;;
13973;SDS011;7060;43.770;4.008;2022-09-13T04:04:42;5.65;;;3.90;;
13973;SDS011;7060;43.770;4.008;2022-09-13T04:07:13;5.32;;;4.20;;
13973;SDS011;7060;43.770;4.008;2022-09-13T04:09:45;5.85;;;4.30;;
13973;SDS011;7060;43.770;4.008;2022-09-13T04:12:14;4.95;;;4.20;;
13973;SDS011;7060;43.770;4.008;2022-09-13T04:14:44;5.07;;;4.20;;
13973;SDS011;7060;43.770;4.008;2022-09-13T04:17:12;6.20;;;4.55;;
13973;SDS011;7060;43.770;4.008;2022-09-13T04:19:41;9.65;;;4.38;;
13973;SDS011;7060;43.770;4.008;2022-09-13T04:22:14;5.65;;;4.43;;
13973;SDS011;7060;43.770;4.008;2022-09-13T04:24:42;4.72;;;3.88;;
13973;SDS011;7060;43.770;4.008;2022-09-13T04:27:11;5.25;;;4.28;;
13973;SDS011;7060;43.770;4.008;2022-09-13T04:29:39;5.07;;;3.97;;
13973;SDS011;7060;43.770;4.008;2022-09-13T04:32:08;9.27;;;4.57;;
13973;SDS011;7060;43.770;4.008;2022-09-13T04:34:36;7.82;;;4.53;;
13973;SDS011;7060;43.770;4.008;2022-09-13T04:37:04;5.68;;;4.65;;
13973;SDS011;7060;43.770;4.008;2022-09-13T04:39:34;6.15;;;4.97;;
13973;SDS011;7060;43.770;4.008;2022-09-13T04:42:04;6.28;;;4.10;;
13973;SDS011;7060;43.770;4.008;2022-09-13T04:44:33;7.20;;;4.55;;
13973;SDS011;7060;43.770;4.008;2022-09-13T04:47:01;8.43;;;3.80;;
13973;SDS011;7060;43.770;4.008;2022-09-13T04:49:30;7.13;;;4.95;;
13973;SDS011;7060;43.770;4.008;2022-09-13T04:51:58;5.13;;;4.35;;
13973;SDS011;7060;43.770;4.008;2022-09-13T04:54:26;4.38;;;3.95;;
13973;SDS011;7060;43.770;4.008;2022-09-13T04:56:56;4.75;;;4.10;;
13973;SDS011;7060;43.770;4.008;2022-09-13T04:59:24;6.82;;;4.47;;
13973;SDS011;7060;43.770;4.008;2022-09-13T05:01:53;4.95;;;4.05;;
13973;SDS011;7060;43.770;4.008;2022-09-13T05:04:21;5.75;;;4.13;;
13973;SDS011;7060;43.770;4.008;2022-09-13T05:06:50;4.22;;;3.83;;
13973;SDS011;7060;43.770;4.008;2022-09-13T05:09:18;11.85;;;4.50;;
13973;SDS011;7060;43.770;4.008;2022-09-13T05:11:46;5.28;;;4.05;;
13973;SDS011;7060;43.770;4.008;2022-09-13T05:14:16;6.57;;;4.90;;
13973;SDS011;7060;43.770;4.008;2022-09-13T05:16:44;4.85;;;4.35;;
13973;SDS011;7060;43.770;4.008;2022-09-13T05:19:12;6.18;;;4.38;;
13973;SDS011;7060;43.770;4.008;2022-09-13T05:21:41;5.97;;;4.32;;
13973;SDS011;7060;43.770;4.008;2022-09-13T05:24:09;6.82;;;4.30;;
13973;SDS011;7060;43.770;4.008;2022-09-13T05:26:37;6.03;;;4.50;;
13973;SDS011;7060;43.770;4.008;2022-09-13T05:29:06;5.50;;;4.80;;
13973;SDS011;7060;43.770;4.008;2022-09-13T05:31:37;7.70;;;4.45;;
13973;SDS011;7060;43.770;4.008;2022-09-13T05:34:08;7.35;;;4.32;;
13973;SDS011;7060;43.770;4.008;2022-09-13T05:36:38;7.03;;;4.50;;
13973;SDS011;7060;43.770;4.008;2022-09-13T05:39:09;7.80;;;4.07;;
13973;SDS011;7060;43.770;4.008;2022-09-13T05:42:01;5.35;;;4.85;;
13973;SDS011;7060;43.770;4.008;2022-09-13T05:44:29;6.20;;;5.32;;
13973;SDS011;7060;43.770;4.008;2022-09-13T05:46:58;5.47;;;4.82;;
13973;SDS011;7060;43.770;4.008;2022-09-13T05:49:27;5.18;;;4.68;;
13973;SDS011;7060;43.770;4.008;2022-09-13T05:51:55;6.35;;;5.20;;
13973;SDS011;7060;43.770;4.008;2022-09-13T05:54:23;6.40;;;4.78;;
13973;SDS011;7060;43.770;4.008;2022-09-13T05:56:52;7.03;;;4.25;;
13973;SDS011;7060;43.770;4.008;2022-09-13T05:59:23;4.97;;;4.47;;
13973;SDS011;7060;43.770;4.008;2022-09-13T06:01:51;6.95;;;4.70;;
13973;SDS011;7060;43.770;4.008;2022-09-13T06:04:21;8.40;;;5.43;;
13973;SDS011;7060;43.770;4.008;2022-09-13T06:06:49;5.55;;;4.38;;
13973;SDS011;7060;43.770;4.008;2022-09-13T06:09:17;8.27;;;4.97;;
13973;SDS011;7060;43.770;4.008;2022-09-13T06:11:46;5.30;;;4.63;;
13973;SDS011;7060;43.770;4.008;2022-09-13T06:14:15;11.27;;;4.43;;
13973;SDS011;7060;43.770;4.008;2022-09-13T06:16:43;5.13;;;4.68;;
13973;SDS011;7060;43.770;4.008;2022-09-13T06:19:12;7.45;;;4.93;;
13973;SDS011;7060;43.770;4.008;2022-09-13T06:21:42;6.85;;;4.18;;
13973;SDS011;7060;43.770;4.008;2022-09-13T06:24:10;5.60;;;4.70;;
13973;SDS011;7060;43.770;4.008;2022-09-13T06:26:38;6.40;;;4.63;;
13973;SDS011;7060;43.770;4.008;2022-09-13T06:29:09;5.53;;;4.25;;
13973;SDS011;7060;43.770;4.008;2022-09-13T06:31:38;5.95;;;4.20;;
13973;SDS011;7060;43.770;4.008;2022-09-13T06:34:10;6.60;;;4.00;;
13973;SDS011;7060;43.770;4.008;2022-09-13T06:36:42;4.65;;;4.25;;
13973;SDS011;7060;43.770;4.008;2022-09-13T06:39:10;6.60;;;4.57;;
13973;SDS011;7060;43.770;4.008;2022-09-13T06:41:40;5.15;;;4.60;;
13973;SDS011;7060;43.770;4.008;2022-09-13T06:44:08;5.05;;;3.97;;
13973;SDS011;7060;43.770;4.008;2022-09-13T06:46:36;5.00;;;4.32;;
13973;SDS011;7060;43.770;4.008;2022-09-13T06:49:05;5.95;;;4.20;;
13973;SDS011;7060;43.770;4.008;2022-09-13T06:51:35;5.18;;;3.90;;
13973;SDS011;7060;43.770;4.008;2022-09-13T06:54:05;6.20;;;4.63;;
13973;SDS011;7060;43.770;4.008;2022-09-13T06:56:34;6.50;;;4.15;;
13973;SDS011;7060;43.770;4.008;2022-09-13T06:59:05;5.68;;;4.07;;
13973;SDS011;7060;43.770;4.008;2022-09-13T07:01:35;5.32;;;4.82;;
13973;SDS011;7060;43.770;4.008;2022-09-13T07:04:05;6.45;;;4.68;;
13973;SDS011;7060;43.770;4.008;2022-09-13T07:06:35;8.98;;;4.45;;
13973;SDS011;7060;43.770;4.008;2022-09-13T07:09:07;5.78;;;4.13;;
13973;SDS011;7060;43.770;4.008;2022-09-13T07:11:38;8.70;;;4.60;;
13973;SDS011;7060;43.770;4.008;2022-09-13T07:14:08;5.70;;;4.30;;
13973;SDS011;7060;43.770;4.008;2022-09-13T07:16:40;7.07;;;4.80;;
13973;SDS011;7060;43.770;4.008;2022-09-13T07:19:11;6.28;;;5.65;;
13973;SDS011;7060;43.770;4.008;2022-09-13T07:21:40;6.63;;;5.68;;
13973;SDS011;7060;43.770;4.008;2022-09-13T07:24:11;6.65;;;5.35;;
13973;SDS011;7060;43.770;4.008;2022-09-13T07:26:39;7.47;;;5.47;;
13973;SDS011;7060;43.770;4.008;2022-09-13T07:29:10;8.55;;;4.70;;
13973;SDS011;7060;43.770;4.008;2022-09-13T07:31:41;6.60;;;3.92;;
13973;SDS011;7060;43.770;4.008;2022-09-13T07:34:11;5.65;;;4.40;;
13973;SDS011;7060;43.770;4.008;2022-09-13T07:36:41;5.32;;;4.40;;
13973;SDS011;7060;43.770;4.008;2022-09-13T07:39:11;5.00;;;3.58;;
13973;SDS011;7060;43.770;4.008;2022-09-13T07:41:45;8.30;;;4.18;;
13973;SDS011;7060;43.770;4.008;2022-09-13T07:44:14;6.63;;;4.05;;
13973;SDS011;7060;43.770;4.008;2022-09-13T07:46:42;6.57;;;4.50;;
13973;SDS011;7060;43.770;4.008;2022-09-13T07:49:11;6.60;;;4.20;;
13973;SDS011;7060;43.770;4.008;2022-09-13T07:51:41;8.90;;;4.15;;
13973;SDS011;7060;43.770;4.008;2022-09-13T07:54:13;7.75;;;3.80;;
13973;SDS011;7060;43.770;4.008;2022-09-13T07:56:43;6.78;;;3.78;;
13973;SDS011;7060;43.770;4.008;2022-09-13T07:59:12;6.60;;;3.88;;
13973;SDS011;7060;43.770;4.008;2022-09-13T08:01:42;9.30;;;3.70;;
13973;SDS011;7060;43.770;4.008;2022-09-13T08:04:12;4.13;;;3.40;;
13973;SDS011;7060;43.770;4.008;2022-09-13T08:06:44;3.60;;;3.28;;
13973;SDS011;7060;43.770;4.008;2022-09-13T08:09:14;9.98;;;4.05;;
13973;SDS011;7060;43.770;4.008;2022-09-13T08:11:44;5.97;;;3.80;;
13973;SDS011;7060;43.770;4.008;2022-09-13T08:14:14;11.55;;;3.75;;
13973;SDS011;7060;43.770;4.008;2022-09-13T08:16:43;6.43;;;3.28;;
13973;SDS011;7060;43.770;4.008;2022-09-13T08:19:13;6.40;;;3.47;;
13973;SDS011;7060;43.770;4.008;2022-09-13T08:21:42;4.60;;;3.08;;
13973;SDS011;7060;43.770;4.008;2022-09-13T08:24:13;5.57;;;3.50;;
13973;SDS011;7060;43.770;4.008;2022-09-13T08:26:44;11.75;;;3.97;;
13973;SDS011;7060;43.770;4.008;2022-09-13T08:29:13;6.20;;;3.10;;
13973;SDS011;7060;43.770;4.008;2022-09-13T08:31:42;6.75;;;3.30;;
13973;SDS011;7060;43.770;4.008;2022-09-13T08:34:11;5.50;;;3.53;;
13973;SDS011;7060;43.770;4.008;2022-09-13T08:36:41;4.45;;;3.33;;
13973;SDS011;7060;43.770;4.008;2022-09-13T08:39:10;4.53;;;3.30;;
13973;SDS011;7060;43.770;4.008;2022-09-13T08:41:53;5.78;;;2.78;;
13973;SDS011;7060;43.770;4.008;2022-09-13T08:44:39;7.60;;;3.45;;
13973;SDS011;7060;43.770;4.008;2022-09-13T08:47:24;6.30;;;2.78;;
13973;SDS011;7060;43.770;4.008;2022-09-13T08:50:03;4.25;;;2.80;;
13973;SDS011;7060;43.770;4.008;2022-09-13T08:52:39;4.38;;;2.63;;
13973;SDS011;7060;43.770;4.008;2022-09-13T08:55:20;5.70;;;2.92;;
13973;SDS011;7060;43.770;4.008;2022-09-13T08:57:56;4.00;;;2.40;;
13973;SDS011;7060;43.770;4.008;2022-09-13T09:00:32;4.75;;;2.42;;
13973;SDS011;7060;43.770;4.008;2022-09-13T09:03:18;6.00;;;2.65;;
13973;SDS011;7060;43.770;4.008;2022-09-13T09:05:51;4.25;;;2.20;;
13973;SDS011;7060;43.770;4.008;2022-09-13T09:08:24;7.10;;;2.17;;
13973;SDS011;7060;43.770;4.008;2022-09-13T09:10:57;4.43;;;2.75;;
13973;SDS011;7060;43.770;4.008;2022-09-13T09:13:32;3.90;;;2.20;;
13973;SDS011;7060;43.770;4.008;2022-09-13T09:16:04;7.10;;;2.22;;
13973;SDS011;7060;43.770;4.008;2022-09-13T09:18:43;5.13;;;2.40;;
13973;SDS011;7060;43.770;4.008;2022-09-13T09:21:15;6.65;;;2.30;;
13973;SDS011;7060;43.770;4.008;2022-09-13T09:23:45;4.35;;;2.33;;
13973;SDS011;7060;43.770;4.008;2022-09-13T09:26:18;7.57;;;2.53;;
13973;SDS011;7060;43.770;4.008;2022-09-13T09:28:50;3.45;;;2.55;;
13973;SDS011;7060;43.770;4.008;2022-09-13T09:31:23;5.43;;;2.38;;
13973;SDS011;7060;43.770;4.008;2022-09-13T09:34:01;4.70;;;2.42;;
13973;SDS011;7060;43.770;4.008;2022-09-13T09:36:43;5.22;;;2.15;;
13973;SDS011;7060;43.770;4.008;2022-09-13T09:39:14;4.22;;;2.20;;
13973;SDS011;7060;43.770;4.008;2022-09-13T09:41:43;7.03;;;2.03;;
13973;SDS011;7060;43.770;4.008;2022-09-13T09:44:16;3.75;;;2.30;;
13973;SDS011;7060;43.770;4.008;2022-09-13T09:46:46;5.90;;;2.72;;
13973;SDS011;7060;43.770;4.008;2022-09-13T09:49:23;3.95;;;2.45;;
13973;SDS011;7060;43.770;4.008;2022-09-13T09:52:17;3.50;;;2.30;;
13973;SDS011;7060;43.770;4.008;2022-09-13T09:54:51;3.38;;;1.83;;
13973;SDS011;7060;43.770;4.008;2022-09-13T09:57:33;2.85;;;2.05;;
13973;SDS011;7060;43.770;4.008;2022-09-13T10:00:18;2.92;;;1.58;;
13973;SDS011;7060;43.770;4.008;2022-09-13T10:02:50;3.35;;;2.28;;
13973;SDS011;7060;43.770;4.008;2022-09-13T10:05:21;2.17;;;1.70;;
13973;SDS011;7060;43.770;4.008;2022-09-13T10:07:56;3.63;;;1.80;;
13973;SDS011;7060;43.770;4.008;2022-09-13T10:10:30;6.35;;;1.92;;
13973;SDS011;7060;43.770;4.008;2022-09-13T10:13:04;2.58;;;1.60;;
13973;SDS011;7060;43.770;4.008;2022-09-13T10:15:36;3.80;;;2.10;;
13973;SDS011;7060;43.770;4.008;2022-09-13T10:18:13;3.45;;;1.80;;
13973;SDS011;7060;43.770;4.008;2022-09-13T10:21:03;3.00;;;1.60;;
13973;SDS011;7060;43.770;4.008;2022-09-13T10:23:34;3.53;;;1.42;;
13973;SDS011;7060;43.770;4.008;2022-09-13T10:26:04;2.90;;;1.35;;
13973;SDS011;7060;43.770;4.008;2022-09-13T10:28:40;4.65;;;1.67;;
13973;SDS011;7060;43.770;4.008;2022-09-13T10:31:15;2.38;;;1.50;;
13973;SDS011;7060;43.770;4.008;2022-09-13T10:33:51;3.97;;;1.70;;
13973;SDS011;7060;43.770;4.008;2022-09-13T10:36:25;2.97;;;1.60;;
13973;SDS011;7060;43.770;4.008;2022-09-13T10:39:17;3.67;;;1.83;;
13973;SDS011;7060;43.770;4.008;2022-09-13T10:41:48;3.85;;;1.88;;
13973;SDS011;7060;43.770;4.008;2022-09-13T10:44:27;4.53;;;1.85;;
13973;SDS011;7060;43.770;4.008;2022-09-13T10:47:02;9.02;;;1.92;;
13973;SDS011;7060;43.770;4.008;2022-09-13T10:49:34;3.08;;;1.50;;
13973;SDS011;7060;43.770;4.008;2022-09-13T10:52:23;5.65;;;1.65;;
13973;SDS011;7060;43.770;4.008;2022-09-13T10:58:14;5.72;;;1.60;;
13973;SDS011;7060;43.770;4.008;2022-09-13T11:07:15;5.07;;;1.60;;
13973;SDS011;7060;43.770;4.008;2022-09-13T11:10:06;2.33;;;1.33;;
13973;SDS011;7060;43.770;4.008;2022-09-13T11:12:42;3.83;;;1.58;;
13973;SDS011;7060;43.770;4.008;2022-09-13T11:15:21;2.88;;;1.30;;
13973;SDS011;7060;43.770;4.008;2022-09-13T11:18:13;4.68;;;1.55;;
13973;SDS011;7060;43.770;4.008;2022-09-13T11:21:04;5.00;;;1.88;;
13973;SDS011;7060;43.770;4.008;2022-09-13T11:23:51;5.20;;;1.83;;
13973;SDS011;7060;43.770;4.008;2022-09-13T11:26:45;4.50;;;1.88;;
13973;SDS011;7060;43.770;4.008;2022-09-13T11:29:25;5.32;;;1.70;;
13973;SDS011;7060;43.770;4.008;2022-09-13T11:32:07;4.15;;;1.67;;
13973;SDS011;7060;43.770;4.008;2022-09-13T11:34:47;2.92;;;1.45;;
13973;SDS011;7060;43.770;4.008;2022-09-13T11:37:39;2.20;;;1.33;;
13973;SDS011;7060;43.770;4.008;2022-09-13T11:40:24;7.28;;;2.03;;
13973;SDS011;7060;43.770;4.008;2022-09-13T11:43:04;4.40;;;1.40;;
13973;SDS011;7060;43.770;4.008;2022-09-13T11:45:48;2.53;;;1.30;;
13973;SDS011;7060;43.770;4.008;2022-09-13T11:48:31;4.13;;;1.55;;
13973;SDS011;7060;43.770;4.008;2022-09-13T11:51:29;2.60;;;1.50;;
13973;SDS011;7060;43.770;4.008;2022-09-13T11:54:13;4.20;;;1.52;;
13973;SDS011;7060;43.770;4.008;2022-09-13T11:56:54;3.33;;;1.40;;
13973;SDS011;7060;43.770;4.008;2022-09-13T11:59:29;3.22;;;1.85;;
13973;SDS011;7060;43.770;4.008;2022-09-13T12:02:10;2.63;;;1.48;;
13973;SDS011;7060;43.770;4.008;2022-09-13T12:04:47;4.85;;;1.80;;
13973;SDS011;7060;43.770;4.008;2022-09-13T12:07:41;5.30;;;1.75;;
13973;SDS011;7060;43.770;4.008;2022-09-13T12:10:14;3.08;;;1.40;;
13973;SDS011;7060;43.770;4.008;2022-09-13T12:12:50;4.03;;;1.70;;
13973;SDS011;7060;43.770;4.008;2022-09-13T12:15:24;4.78;;;1.80;;
13973;SDS011;7060;43.770;4.008;2022-09-13T12:17:57;3.28;;;1.60;;
13973;SDS011;7060;43.770;4.008;2022-09-13T12:20:32;3.40;;;1.60;;
13973;SDS011;7060;43.770;4.008;2022-09-13T12:23:03;5.10;;;1.70;;
13973;SDS011;7060;43.770;4.008;2022-09-13T12:25:38;4.15;;;1.85;;
13973;SDS011;7060;43.770;4.008;2022-09-13T12:28:16;4.85;;;1.65;;
13973;SDS011;7060;43.770;4.008;2022-09-13T12:30:51;4.32;;;1.80;;
13973;SDS011;7060;43.770;4.008;2022-09-13T12:33:23;3.53;;;1.75;;
13973;SDS011;7060;43.770;4.008;2022-09-13T12:36:02;3.67;;;1.90;;
13973;SDS011;7060;43.770;4.008;2022-09-13T12:38:48;3.25;;;1.70;;
13973;SDS011;7060;43.770;4.008;2022-09-13T12:41:35;5.75;;;2.75;;
13973;SDS011;7060;43.770;4.008;2022-09-13T12:44:19;6.15;;;1.50;;
13973;SDS011;7060;43.770;4.008;2022-09-13T12:50:15;5.55;;;1.75;;
13973;SDS011;7060;43.770;4.008;2022-09-13T12:53:24;3.03;;;1.88;;
13973;SDS011;7060;43.770;4.008;2022-09-13T12:59:31;5.63;;;1.77;;
13973;SDS011;7060;43.770;4.008;2022-09-13T13:02:27;3.85;;;1.60;;
13973;SDS011;7060;43.770;4.008;2022-09-13T13:05:16;6.53;;;1.73;;
13973;SDS011;7060;43.770;4.008;2022-09-13T13:07:57;3.50;;;1.85;;
13973;SDS011;7060;43.770;4.008;2022-09-13T13:10:29;6.82;;;2.10;;
13973;SDS011;7060;43.770;4.008;2022-09-13T13:13:09;3.17;;;1.50;;
13973;SDS011;7060;43.770;4.008;2022-09-13T13:15:58;6.10;;;1.70;;
13973;SDS011;7060;43.770;4.008;2022-09-13T13:18:29;3.22;;;1.75;;
13973;SDS011;7060;43.770;4.008;2022-09-13T13:33:25;3.47;;;1.30;;
13973;SDS011;7060;43.770;4.008;2022-09-13T13:35:57;3.30;;;1.50;;
13973;SDS011;7060;43.770;4.008;2022-09-13T13:38:50;3.58;;;1.65;;
13973;SDS011;7060;43.770;4.008;2022-09-13T13:50:33;5.68;;;1.60;;
13973;SDS011;7060;43.770;4.008;2022-09-13T13:56:07;6.70;;;1.70;;
13973;SDS011;7060;43.770;4.008;2022-09-13T13:58:45;4.38;;;1.90;;
13973;SDS011;7060;43.770;4.008;2022-09-13T14:01:19;8.50;;;1.85;;
13973;SDS011;7060;43.770;4.008;2022-09-13T14:04:01;4.10;;;1.52;;
13973;SDS011;7060;43.770;4.008;2022-09-13T14:07:11;3.58;;;1.52;;
13973;SDS011;7060;43.770;4.008;2022-09-13T14:09:56;3.92;;;1.60;;
13973;SDS011;7060;43.770;4.008;2022-09-13T14:12:37;5.95;;;1.55;;
13973;SDS011;7060;43.770;4.008;2022-09-13T14:15:33;3.88;;;1.73;;
13973;SDS011;7060;43.770;4.008;2022-09-13T14:18:27;4.75;;;1.75;;
13973;SDS011;7060;43.770;4.008;2022-09-13T14:21:20;4.07;;;2.05;;
13973;SDS011;7060;43.770;4.008;2022-09-13T14:23:54;2.67;;;2.00;;
13973;SDS011;7060;43.770;4.008;2022-09-13T14:26:35;4.53;;;1.33;;
13973;SDS011;7060;43.770;4.008;2022-09-13T14:29:06;6.57;;;2.45;;
13973;SDS011;7060;43.770;4.008;2022-09-13T14:31:35;4.53;;;1.63;;
13973;SDS011;7060;43.770;4.008;2022-09-13T14:34:04;3.35;;;1.60;;
13973;SDS011;7060;43.770;4.008;2022-09-13T14:36:32;7.43;;;2.10;;
13973;SDS011;7060;43.770;4.008;2022-09-13T14:39:04;4.63;;;1.77;;
13973;SDS011;7060;43.770;4.008;2022-09-13T14:41:36;3.42;;;1.75;;
13973;SDS011;7060;43.770;4.008;2022-09-13T14:44:14;6.32;;;1.98;;
13973;SDS011;7060;43.770;4.008;2022-09-13T14:46:54;3.92;;;1.55;;
13973;SDS011;7060;43.770;4.008;2022-09-13T14:49:30;4.80;;;1.55;;
13973;SDS011;7060;43.770;4.008;2022-09-13T14:52:02;5.47;;;2.33;;
13973;SDS011;7060;43.770;4.008;2022-09-13T14:54:37;4.97;;;1.80;;
13973;SDS011;7060;43.770;4.008;2022-09-13T14:57:09;4.70;;;1.90;;
13973;SDS011;7060;43.770;4.008;2022-09-13T14:59:48;4.28;;;1.67;;
13973;SDS011;7060;43.770;4.008;2022-09-13T15:02:22;2.10;;;1.70;;
13973;SDS011;7060;43.770;4.008;2022-09-13T15:04:53;5.45;;;2.25;;
13973;SDS011;7060;43.770;4.008;2022-09-13T15:07:26;3.53;;;1.45;;
13973;SDS011;7060;43.770;4.008;2022-09-13T15:10:04;4.75;;;2.05;;
13973;SDS011;7060;43.770;4.008;2022-09-13T15:12:34;5.25;;;2.00;;
13973;SDS011;7060;43.770;4.008;2022-09-13T15:15:16;4.63;;;2.22;;
13973;SDS011;7060;43.770;4.008;2022-09-13T15:17:49;7.03;;;1.95;;
13973;SDS011;7060;43.770;4.008;2022-09-13T15:20:19;3.55;;;1.67;;
13973;SDS011;7060;43.770;4.008;2022-09-13T15:22:49;4.57;;;2.10;;
13973;SDS011;7060;43.770;4.008;2022-09-13T15:25:21;5.72;;;1.80;;
13973;SDS011;7060;43.770;4.008;2022-09-13T15:27:52;6.10;;;2.10;;
13973;SDS011;7060;43.770;4.008;2022-09-13T15:30:23;5.43;;;2.20;;
13973;SDS011;7060;43.770;4.008;2022-09-13T15:33:03;4.93;;;2.17;;
13973;SDS011;7060;43.770;4.008;2022-09-13T15:35:34;6.28;;;2.25;;
13973;SDS011;7060;43.770;4.008;2022-09-13T15:38:14;4.40;;;2.10;;
13973;SDS011;7060;43.770;4.008;2022-09-13T15:40:46;3.67;;;1.50;;
13973;SDS011;7060;43.770;4.008;2022-09-13T15:43:24;7.20;;;2.20;;
13973;SDS011;7060;43.770;4.008;2022-09-13T15:45:52;4.50;;;1.67;;
13973;SDS011;7060;43.770;4.008;2022-09-13T15:48:24;3.50;;;1.88;;
13973;SDS011;7060;43.770;4.008;2022-09-13T15:51:03;3.97;;;2.03;;
13973;SDS011;7060;43.770;4.008;2022-09-13T15:53:36;3.80;;;1.80;;
13973;SDS011;7060;43.770;4.008;2022-09-13T15:56:08;4.65;;;1.85;;
13973;SDS011;7060;43.770;4.008;2022-09-13T15:58:41;3.90;;;2.40;;
13973;SDS011;7060;43.770;4.008;2022-09-13T16:01:10;4.03;;;1.95;;
13973;SDS011;7060;43.770;4.008;2022-09-13T16:03:40;6.47;;;2.35;;
13973;SDS011;7060;43.770;4.008;2022-09-13T16:06:08;3.47;;;2.30;;
13973;SDS011;7060;43.770;4.008;2022-09-13T16:08:38;5.95;;;2.10;;
13973;SDS011;7060;43.770;4.008;2022-09-13T16:11:08;9.10;;;2.38;;
13973;SDS011;7060;43.770;4.008;2022-09-13T16:13:36;4.38;;;2.05;;
13973;SDS011;7060;43.770;4.008;2022-09-13T16:16:05;6.57;;;2.05;;
13973;SDS011;7060;43.770;4.008;2022-09-13T16:18:33;6.47;;;2.40;;
13973;SDS011;7060;43.770;4.008;2022-09-13T16:21:02;4.03;;;2.13;;
13973;SDS011;7060;43.770;4.008;2022-09-13T16:23:31;4.10;;;1.95;;
13973;SDS011;7060;43.770;4.008;2022-09-13T16:25:59;5.47;;;2.53;;
13973;SDS011;7060;43.770;4.008;2022-09-13T16:28:30;5.93;;;2.20;;